Banner, Illinois
Current Conditions -  °F | °C
As of 12:54 AM on Monday 24 Nov 2014 (Local Time) from KPIA Reporting Station
Light Rain Light Rain  
Wind Chill: 51°   Ceiling: 400
Heat Index: 51°   Visibility: 9mi
Dew Point: 49°   Wind: 6mph
Humidity: 92%   Direction: 260°W
Pressure: 29.14"   Gusts: NA
Location:  40.5579°N, 89.9752°W
Report Text: KPIA 240654Z 26005KT 9SM -RA OVC004 11/09 A2914 RMK AO2 RAB0558 SLP868 P0008 T01060094
Loading
Personal Weather Stations






























Interactive Weather Map New forecast layout! Learn more

10-Day Weather Forecast

Advertisements
Track Severe Weather on mobile